Letona, Arkansas
Current Conditions -  °F | °C
As of 10:56 AM on Saturday 22 Nov 2014 (Local Time) from KSRC Reporting Station
Overcast Overcast  
Wind Chill: 61°   Ceiling: 3800
Heat Index: 61°   Visibility: 10mi
Dew Point: 51°   Wind: 9mph
Humidity: 70%   Direction: 190°S
Pressure: 30.19"   Gusts: NA
Location:  35.36°N, 91.83°W
Report Text: KSRC 221656Z AUTO 19008KT 10SM OVC038 16/11 A3019 RMK AO2 SLP230 T01610106 TSNO
Loading
Personal Weather Stations






























Interactive Weather Map New forecast layout! Learn more

10-Day Weather Forecast

Advertisements
Track Severe Weather on mobile